sensor_id;sensor_type;location;lat;lon;timestamp;P1;durP1;ratioP1;P2;durP2;ratioP2
73239;SDS011;61452;40.054;4.110;2023-08-06T00:03:35;5.82;;;2.08;;
73239;SDS011;61452;40.054;4.110;2023-08-06T00:08:38;6.18;;;2.30;;
73239;SDS011;61452;40.054;4.110;2023-08-06T00:13:40;7.20;;;2.13;;
73239;SDS011;61452;40.054;4.110;2023-08-06T00:18:42;10.57;;;2.40;;
73239;SDS011;61452;40.054;4.110;2023-08-06T00:23:45;9.48;;;2.15;;
73239;SDS011;61452;40.054;4.110;2023-08-06T00:28:47;6.50;;;1.55;;
73239;SDS011;61452;40.054;4.110;2023-08-06T00:33:49;6.38;;;1.52;;
73239;SDS011;61452;40.054;4.110;2023-08-06T00:38:51;6.90;;;1.70;;
73239;SDS011;61452;40.054;4.110;2023-08-06T00:43:54;7.47;;;2.47;;
73239;SDS011;61452;40.054;4.110;2023-08-06T00:48:56;7.70;;;2.10;;
73239;SDS011;61452;40.054;4.110;2023-08-06T00:53:59;8.40;;;2.28;;
73239;SDS011;61452;40.054;4.110;2023-08-06T00:59:01;8.90;;;2.20;;
73239;SDS011;61452;40.054;4.110;2023-08-06T01:04:04;5.47;;;1.80;;
73239;SDS011;61452;40.054;4.110;2023-08-06T01:09:31;7.28;;;1.77;;
73239;SDS011;61452;40.054;4.110;2023-08-06T01:15:11;9.27;;;2.17;;
73239;SDS011;61452;40.054;4.110;2023-08-06T01:20:27;8.57;;;1.63;;
73239;SDS011;61452;40.054;4.110;2023-08-06T01:25:32;7.43;;;2.83;;
73239;SDS011;61452;40.054;4.110;2023-08-06T01:30:36;9.45;;;2.25;;
73239;SDS011;61452;40.054;4.110;2023-08-06T01:35:42;7.65;;;1.90;;
73239;SDS011;61452;40.054;4.110;2023-08-06T01:40:45;8.00;;;2.08;;
73239;SDS011;61452;40.054;4.110;2023-08-06T01:45:47;15.48;;;3.67;;
73239;SDS011;61452;40.054;4.110;2023-08-06T01:50:49;12.05;;;2.40;;
73239;SDS011;61452;40.054;4.110;2023-08-06T01:55:52;7.68;;;2.40;;
73239;SDS011;61452;40.054;4.110;2023-08-06T02:00:54;5.05;;;1.92;;
73239;SDS011;61452;40.054;4.110;2023-08-06T02:05:58;5.63;;;1.75;;
73239;SDS011;61452;40.054;4.110;2023-08-06T02:11:00;5.22;;;1.60;;
73239;SDS011;61452;40.054;4.110;2023-08-06T02:16:06;2.60;;;1.20;;
73239;SDS011;61452;40.054;4.110;2023-08-06T02:21:10;12.85;;;3.03;;
73239;SDS011;61452;40.054;4.110;2023-08-06T02:26:12;10.48;;;2.80;;
73239;SDS011;61452;40.054;4.110;2023-08-06T02:31:14;14.18;;;3.05;;
73239;SDS011;61452;40.054;4.110;2023-08-06T02:36:17;13.63;;;2.75;;
73239;SDS011;61452;40.054;4.110;2023-08-06T02:41:19;24.05;;;4.85;;
73239;SDS011;61452;40.054;4.110;2023-08-06T02:46:21;20.17;;;3.03;;
73239;SDS011;61452;40.054;4.110;2023-08-06T02:51:23;29.10;;;4.13;;
73239;SDS011;61452;40.054;4.110;2023-08-06T02:56:26;15.70;;;3.78;;
73239;SDS011;61452;40.054;4.110;2023-08-06T03:01:38;28.02;;;4.25;;
73239;SDS011;61452;40.054;4.110;2023-08-06T03:06:49;32.72;;;5.20;;
73239;SDS011;61452;40.054;4.110;2023-08-06T03:11:54;27.60;;;4.43;;
73239;SDS011;61452;40.054;4.110;2023-08-06T03:16:56;36.30;;;5.18;;
73239;SDS011;61452;40.054;4.110;2023-08-06T03:21:58;21.38;;;3.60;;
73239;SDS011;61452;40.054;4.110;2023-08-06T03:27:01;13.15;;;2.20;;
73239;SDS011;61452;40.054;4.110;2023-08-06T03:32:04;7.80;;;1.63;;
73239;SDS011;61452;40.054;4.110;2023-08-06T03:37:07;9.10;;;2.28;;
73239;SDS011;61452;40.054;4.110;2023-08-06T03:42:10;6.05;;;1.52;;
73239;SDS011;61452;40.054;4.110;2023-08-06T03:47:12;6.38;;;1.42;;
73239;SDS011;61452;40.054;4.110;2023-08-06T03:52:14;7.35;;;1.70;;
73239;SDS011;61452;40.054;4.110;2023-08-06T03:57:17;6.70;;;1.70;;
73239;SDS011;61452;40.054;4.110;2023-08-06T04:02:19;7.40;;;1.70;;
73239;SDS011;61452;40.054;4.110;2023-08-06T04:07:22;4.20;;;1.65;;
73239;SDS011;61452;40.054;4.110;2023-08-06T04:12:24;5.65;;;1.67;;
73239;SDS011;61452;40.054;4.110;2023-08-06T04:17:26;6.47;;;1.98;;
73239;SDS011;61452;40.054;4.110;2023-08-06T04:22:29;6.57;;;1.63;;
73239;SDS011;61452;40.054;4.110;2023-08-06T04:27:31;8.52;;;2.10;;
73239;SDS011;61452;40.054;4.110;2023-08-06T04:32:34;5.95;;;1.92;;
73239;SDS011;61452;40.054;4.110;2023-08-06T04:37:36;5.97;;;1.77;;
73239;SDS011;61452;40.054;4.110;2023-08-06T04:42:38;8.15;;;2.10;;
73239;SDS011;61452;40.054;4.110;2023-08-06T04:47:40;7.40;;;1.50;;
73239;SDS011;61452;40.054;4.110;2023-08-06T04:52:42;6.05;;;1.90;;
73239;SDS011;61452;40.054;4.110;2023-08-06T04:57:45;7.25;;;2.25;;
73239;SDS011;61452;40.054;4.110;2023-08-06T05:02:47;6.50;;;2.25;;
73239;SDS011;61452;40.054;4.110;2023-08-06T05:07:49;6.93;;;1.90;;
73239;SDS011;61452;40.054;4.110;2023-08-06T05:12:52;9.90;;;1.70;;
73239;SDS011;61452;40.054;4.110;2023-08-06T05:17:54;6.32;;;1.92;;
73239;SDS011;61452;40.054;4.110;2023-08-06T05:22:57;6.13;;;1.63;;
73239;SDS011;61452;40.054;4.110;2023-08-06T05:27:59;5.45;;;1.95;;
73239;SDS011;61452;40.054;4.110;2023-08-06T05:33:03;8.18;;;2.22;;
73239;SDS011;61452;40.054;4.110;2023-08-06T05:38:05;9.98;;;2.10;;
73239;SDS011;61452;40.054;4.110;2023-08-06T05:43:07;6.00;;;1.60;;
73239;SDS011;61452;40.054;4.110;2023-08-06T05:48:09;5.22;;;1.90;;
73239;SDS011;61452;40.054;4.110;2023-08-06T05:53:11;8.25;;;1.70;;
73239;SDS011;61452;40.054;4.110;2023-08-06T05:58:14;6.22;;;1.50;;
73239;SDS011;61452;40.054;4.110;2023-08-06T06:03:16;4.63;;;1.45;;
73239;SDS011;61452;40.054;4.110;2023-08-06T06:08:18;9.00;;;1.60;;
73239;SDS011;61452;40.054;4.110;2023-08-06T06:13:20;5.65;;;1.67;;
73239;SDS011;61452;40.054;4.110;2023-08-06T06:18:22;11.13;;;1.67;;
73239;SDS011;61452;40.054;4.110;2023-08-06T06:23:25;7.38;;;1.50;;
73239;SDS011;61452;40.054;4.110;2023-08-06T06:28:27;8.38;;;2.17;;
73239;SDS011;61452;40.054;4.110;2023-08-06T06:33:29;44.10;;;23.77;;
73239;SDS011;61452;40.054;4.110;2023-08-06T06:38:31;12.27;;;2.60;;
73239;SDS011;61452;40.054;4.110;2023-08-06T06:43:33;45.10;;;23.50;;
73239;SDS011;61452;40.054;4.110;2023-08-06T06:48:36;13.30;;;5.28;;
73239;SDS011;61452;40.054;4.110;2023-08-06T06:53:38;14.32;;;6.47;;
73239;SDS011;61452;40.054;4.110;2023-08-06T06:58:40;13.02;;;6.25;;
73239;SDS011;61452;40.054;4.110;2023-08-06T07:03:42;11.38;;;2.78;;
73239;SDS011;61452;40.054;4.110;2023-08-06T07:08:45;7.50;;;2.13;;
73239;SDS011;61452;40.054;4.110;2023-08-06T07:13:47;8.07;;;1.90;;
73239;SDS011;61452;40.054;4.110;2023-08-06T07:18:52;10.23;;;2.13;;
73239;SDS011;61452;40.054;4.110;2023-08-06T07:23:56;10.10;;;2.05;;
73239;SDS011;61452;40.054;4.110;2023-08-06T07:28:58;21.83;;;4.00;;
73239;SDS011;61452;40.054;4.110;2023-08-06T07:34:00;18.55;;;3.83;;
73239;SDS011;61452;40.054;4.110;2023-08-06T07:39:02;20.25;;;3.30;;
73239;SDS011;61452;40.054;4.110;2023-08-06T07:44:06;30.95;;;13.15;;
73239;SDS011;61452;40.054;4.110;2023-08-06T07:49:09;39.33;;;13.32;;
73239;SDS011;61452;40.054;4.110;2023-08-06T07:54:12;21.65;;;7.13;;
73239;SDS011;61452;40.054;4.110;2023-08-06T07:59:15;25.33;;;9.13;;
73239;SDS011;61452;40.054;4.110;2023-08-06T08:04:17;33.00;;;17.30;;
73239;SDS011;61452;40.054;4.110;2023-08-06T08:09:21;29.55;;;7.82;;
73239;SDS011;61452;40.054;4.110;2023-08-06T08:14:23;28.83;;;6.15;;
73239;SDS011;61452;40.054;4.110;2023-08-06T08:19:26;21.00;;;4.20;;
73239;SDS011;61452;40.054;4.110;2023-08-06T08:24:28;22.65;;;4.05;;
73239;SDS011;61452;40.054;4.110;2023-08-06T08:29:32;32.97;;;5.97;;
73239;SDS011;61452;40.054;4.110;2023-08-06T08:34:34;25.30;;;6.10;;
73239;SDS011;61452;40.054;4.110;2023-08-06T08:39:36;21.58;;;5.50;;
73239;SDS011;61452;40.054;4.110;2023-08-06T08:44:39;22.15;;;4.30;;
73239;SDS011;61452;40.054;4.110;2023-08-06T08:54:44;39.22;;;6.00;;
73239;SDS011;61452;40.054;4.110;2023-08-06T09:04:50;29.77;;;5.97;;
73239;SDS011;61452;40.054;4.110;2023-08-06T09:09:54;26.65;;;6.80;;
73239;SDS011;61452;40.054;4.110;2023-08-06T09:14:58;24.88;;;4.57;;
73239;SDS011;61452;40.054;4.110;2023-08-06T09:20:08;28.02;;;4.70;;
73239;SDS011;61452;40.054;4.110;2023-08-06T09:25:11;26.02;;;7.63;;
73239;SDS011;61452;40.054;4.110;2023-08-06T09:30:32;44.72;;;13.85;;
73239;SDS011;61452;40.054;4.110;2023-08-06T09:35:38;31.40;;;9.70;;
73239;SDS011;61452;40.054;4.110;2023-08-06T09:40:40;29.75;;;9.68;;
73239;SDS011;61452;40.054;4.110;2023-08-06T09:45:43;25.30;;;5.00;;
73239;SDS011;61452;40.054;4.110;2023-08-06T09:50:45;20.33;;;5.15;;
73239;SDS011;61452;40.054;4.110;2023-08-06T09:55:49;26.80;;;5.40;;
73239;SDS011;61452;40.054;4.110;2023-08-06T10:00:52;33.83;;;6.90;;
73239;SDS011;61452;40.054;4.110;2023-08-06T10:05:57;31.40;;;5.82;;
73239;SDS011;61452;40.054;4.110;2023-08-06T10:11:01;30.48;;;5.97;;
73239;SDS011;61452;40.054;4.110;2023-08-06T10:16:05;33.83;;;5.53;;
73239;SDS011;61452;40.054;4.110;2023-08-06T10:21:08;32.35;;;7.38;;
73239;SDS011;61452;40.054;4.110;2023-08-06T10:26:11;30.55;;;5.72;;
73239;SDS011;61452;40.054;4.110;2023-08-06T10:31:13;36.97;;;7.65;;
73239;SDS011;61452;40.054;4.110;2023-08-06T10:36:15;31.30;;;7.07;;
73239;SDS011;61452;40.054;4.110;2023-08-06T10:41:27;26.17;;;5.38;;
73239;SDS011;61452;40.054;4.110;2023-08-06T10:46:30;28.45;;;6.03;;
73239;SDS011;61452;40.054;4.110;2023-08-06T10:51:33;22.50;;;5.47;;
73239;SDS011;61452;40.054;4.110;2023-08-06T10:56:39;37.22;;;7.82;;
73239;SDS011;61452;40.054;4.110;2023-08-06T11:04:32;30.17;;;5.97;;
73239;SDS011;61452;40.054;4.110;2023-08-06T11:09:34;32.83;;;6.28;;
73239;SDS011;61452;40.054;4.110;2023-08-06T11:14:37;26.10;;;5.63;;
73239;SDS011;61452;40.054;4.110;2023-08-06T11:24:43;36.15;;;7.38;;
73239;SDS011;61452;40.054;4.110;2023-08-06T11:29:45;34.08;;;7.30;;
73239;SDS011;61452;40.054;4.110;2023-08-06T11:34:47;37.42;;;8.15;;
73239;SDS011;61452;40.054;4.110;2023-08-06T11:39:49;41.28;;;8.23;;
73239;SDS011;61452;40.054;4.110;2023-08-06T11:44:51;42.25;;;9.32;;
73239;SDS011;61452;40.054;4.110;2023-08-06T11:49:54;35.17;;;6.35;;
73239;SDS011;61452;40.054;4.110;2023-08-06T11:55:00;56.35;;;17.58;;
73239;SDS011;61452;40.054;4.110;2023-08-06T12:00:09;58.15;;;26.42;;
73239;SDS011;61452;40.054;4.110;2023-08-06T12:05:16;39.83;;;10.52;;
73239;SDS011;61452;40.054;4.110;2023-08-06T12:10:19;36.55;;;7.63;;
73239;SDS011;61452;40.054;4.110;2023-08-06T12:15:22;35.55;;;9.00;;
73239;SDS011;61452;40.054;4.110;2023-08-06T12:25:28;41.65;;;15.75;;
73239;SDS011;61452;40.054;4.110;2023-08-06T12:30:31;42.17;;;13.05;;
73239;SDS011;61452;40.054;4.110;2023-08-06T12:35:33;34.35;;;8.45;;
73239;SDS011;61452;40.054;4.110;2023-08-06T12:40:36;39.08;;;8.20;;
73239;SDS011;61452;40.054;4.110;2023-08-06T12:45:41;38.70;;;7.75;;
73239;SDS011;61452;40.054;4.110;2023-08-06T12:50:43;45.42;;;16.85;;
73239;SDS011;61452;40.054;4.110;2023-08-06T12:55:45;55.88;;;20.38;;
73239;SDS011;61452;40.054;4.110;2023-08-06T13:00:48;32.78;;;10.88;;
73239;SDS011;61452;40.054;4.110;2023-08-06T13:05:50;36.50;;;8.85;;
73239;SDS011;61452;40.054;4.110;2023-08-06T13:10:52;39.35;;;9.85;;
73239;SDS011;61452;40.054;4.110;2023-08-06T13:15:54;46.72;;;14.65;;
73239;SDS011;61452;40.054;4.110;2023-08-06T13:20:57;86.72;;;33.00;;
73239;SDS011;61452;40.054;4.110;2023-08-06T13:25:59;82.07;;;31.63;;
73239;SDS011;61452;40.054;4.110;2023-08-06T13:31:01;58.65;;;19.83;;
73239;SDS011;61452;40.054;4.110;2023-08-06T13:36:03;54.65;;;15.13;;
73239;SDS011;61452;40.054;4.110;2023-08-06T13:41:06;42.55;;;9.90;;
73239;SDS011;61452;40.054;4.110;2023-08-06T13:46:08;36.08;;;8.30;;
73239;SDS011;61452;40.054;4.110;2023-08-06T13:51:11;39.85;;;7.68;;
73239;SDS011;61452;40.054;4.110;2023-08-06T13:56:13;37.22;;;7.38;;
73239;SDS011;61452;40.054;4.110;2023-08-06T14:01:19;37.50;;;7.43;;
73239;SDS011;61452;40.054;4.110;2023-08-06T14:06:24;28.45;;;7.45;;
73239;SDS011;61452;40.054;4.110;2023-08-06T14:11:26;35.80;;;11.85;;
73239;SDS011;61452;40.054;4.110;2023-08-06T14:16:28;107.65;;;63.08;;
73239;SDS011;61452;40.054;4.110;2023-08-06T14:21:31;77.55;;;40.15;;
73239;SDS011;61452;40.054;4.110;2023-08-06T14:26:33;62.85;;;30.55;;
73239;SDS011;61452;40.054;4.110;2023-08-06T14:31:35;47.97;;;19.60;;
73239;SDS011;61452;40.054;4.110;2023-08-06T14:36:37;40.50;;;14.70;;
73239;SDS011;61452;40.054;4.110;2023-08-06T14:41:40;40.45;;;13.50;;
73239;SDS011;61452;40.054;4.110;2023-08-06T14:46:42;34.42;;;10.88;;
73239;SDS011;61452;40.054;4.110;2023-08-06T14:51:44;38.85;;;9.68;;
73239;SDS011;61452;40.054;4.110;2023-08-06T14:56:47;30.08;;;8.60;;
73239;SDS011;61452;40.054;4.110;2023-08-06T15:01:49;33.65;;;9.10;;
73239;SDS011;61452;40.054;4.110;2023-08-06T15:06:55;40.75;;;10.27;;
73239;SDS011;61452;40.054;4.110;2023-08-06T15:11:57;41.58;;;10.13;;
73239;SDS011;61452;40.054;4.110;2023-08-06T15:17:00;33.88;;;9.88;;
73239;SDS011;61452;40.054;4.110;2023-08-06T15:22:02;27.55;;;7.10;;
73239;SDS011;61452;40.054;4.110;2023-08-06T15:27:04;25.83;;;6.88;;
73239;SDS011;61452;40.054;4.110;2023-08-06T15:32:06;28.45;;;7.32;;
73239;SDS011;61452;40.054;4.110;2023-08-06T15:37:09;27.48;;;6.57;;
73239;SDS011;61452;40.054;4.110;2023-08-06T15:42:11;28.55;;;6.43;;
73239;SDS011;61452;40.054;4.110;2023-08-06T15:47:14;33.05;;;7.13;;
73239;SDS011;61452;40.054;4.110;2023-08-06T15:52:17;32.50;;;7.07;;
73239;SDS011;61452;40.054;4.110;2023-08-06T15:57:19;31.30;;;7.40;;
73239;SDS011;61452;40.054;4.110;2023-08-06T16:02:21;25.92;;;6.43;;
73239;SDS011;61452;40.054;4.110;2023-08-06T16:07:26;29.33;;;6.38;;
73239;SDS011;61452;40.054;4.110;2023-08-06T16:12:28;32.75;;;7.03;;
73239;SDS011;61452;40.054;4.110;2023-08-06T16:17:30;28.42;;;6.18;;
73239;SDS011;61452;40.054;4.110;2023-08-06T16:22:33;24.42;;;5.68;;
73239;SDS011;61452;40.054;4.110;2023-08-06T16:27:35;32.15;;;6.18;;
73239;SDS011;61452;40.054;4.110;2023-08-06T16:32:37;27.67;;;6.63;;
73239;SDS011;61452;40.054;4.110;2023-08-06T16:37:39;34.13;;;6.03;;
73239;SDS011;61452;40.054;4.110;2023-08-06T16:42:41;30.20;;;6.45;;
73239;SDS011;61452;40.054;4.110;2023-08-06T16:47:44;22.40;;;5.07;;
73239;SDS011;61452;40.054;4.110;2023-08-06T16:52:46;26.35;;;5.97;;
73239;SDS011;61452;40.054;4.110;2023-08-06T16:57:48;28.92;;;6.15;;
73239;SDS011;61452;40.054;4.110;2023-08-06T17:02:51;31.23;;;6.40;;
73239;SDS011;61452;40.054;4.110;2023-08-06T17:07:53;23.98;;;5.85;;
73239;SDS011;61452;40.054;4.110;2023-08-06T17:12:55;22.67;;;5.30;;
73239;SDS011;61452;40.054;4.110;2023-08-06T17:18:17;26.67;;;8.20;;
73239;SDS011;61452;40.054;4.110;2023-08-06T17:23:20;29.63;;;8.35;;
73239;SDS011;61452;40.054;4.110;2023-08-06T17:28:22;33.55;;;11.32;;
73239;SDS011;61452;40.054;4.110;2023-08-06T17:33:24;31.98;;;8.85;;
73239;SDS011;61452;40.054;4.110;2023-08-06T17:38:27;28.08;;;7.43;;
73239;SDS011;61452;40.054;4.110;2023-08-06T17:43:29;22.38;;;5.70;;
73239;SDS011;61452;40.054;4.110;2023-08-06T17:48:31;29.27;;;5.40;;
73239;SDS011;61452;40.054;4.110;2023-08-06T17:53:33;26.10;;;5.78;;
73239;SDS011;61452;40.054;4.110;2023-08-06T17:58:35;31.67;;;9.70;;
73239;SDS011;61452;40.054;4.110;2023-08-06T18:03:38;40.28;;;11.93;;
73239;SDS011;61452;40.054;4.110;2023-08-06T18:08:40;44.80;;;13.75;;
73239;SDS011;61452;40.054;4.110;2023-08-06T18:13:42;34.58;;;11.75;;
73239;SDS011;61452;40.054;4.110;2023-08-06T18:18:45;41.03;;;13.10;;
73239;SDS011;61452;40.054;4.110;2023-08-06T18:23:47;26.92;;;6.47;;
73239;SDS011;61452;40.054;4.110;2023-08-06T18:28:49;21.63;;;5.10;;
73239;SDS011;61452;40.054;4.110;2023-08-06T18:33:51;28.25;;;4.63;;
73239;SDS011;61452;40.054;4.110;2023-08-06T18:38:54;28.08;;;5.93;;
73239;SDS011;61452;40.054;4.110;2023-08-06T18:43:56;41.05;;;6.38;;
73239;SDS011;61452;40.054;4.110;2023-08-06T18:48:58;26.98;;;5.35;;
73239;SDS011;61452;40.054;4.110;2023-08-06T18:54:00;31.75;;;6.85;;
73239;SDS011;61452;40.054;4.110;2023-08-06T18:59:02;27.27;;;5.85;;
73239;SDS011;61452;40.054;4.110;2023-08-06T19:04:04;23.20;;;5.28;;
73239;SDS011;61452;40.054;4.110;2023-08-06T19:09:07;28.05;;;5.25;;
73239;SDS011;61452;40.054;4.110;2023-08-06T19:14:09;28.50;;;6.15;;
73239;SDS011;61452;40.054;4.110;2023-08-06T19:19:12;26.08;;;6.82;;
73239;SDS011;61452;40.054;4.110;2023-08-06T19:24:14;25.15;;;4.85;;
73239;SDS011;61452;40.054;4.110;2023-08-06T19:29:16;32.95;;;10.18;;
73239;SDS011;61452;40.054;4.110;2023-08-06T19:34:19;36.05;;;11.07;;
73239;SDS011;61452;40.054;4.110;2023-08-06T19:39:21;32.42;;;9.35;;
73239;SDS011;61452;40.054;4.110;2023-08-06T19:44:23;23.65;;;5.75;;
73239;SDS011;61452;40.054;4.110;2023-08-06T19:49:25;24.10;;;4.65;;
73239;SDS011;61452;40.054;4.110;2023-08-06T19:54:28;23.88;;;4.57;;
73239;SDS011;61452;40.054;4.110;2023-08-06T19:59:30;25.02;;;5.10;;
73239;SDS011;61452;40.054;4.110;2023-08-06T20:04:32;22.70;;;4.30;;
73239;SDS011;61452;40.054;4.110;2023-08-06T20:09:34;22.70;;;4.43;;
73239;SDS011;61452;40.054;4.110;2023-08-06T20:14:37;21.38;;;4.57;;
73239;SDS011;61452;40.054;4.110;2023-08-06T20:19:39;23.85;;;4.38;;
73239;SDS011;61452;40.054;4.110;2023-08-06T20:24:42;24.10;;;5.20;;
73239;SDS011;61452;40.054;4.110;2023-08-06T20:29:44;21.92;;;4.18;;
73239;SDS011;61452;40.054;4.110;2023-08-06T20:34:46;20.00;;;3.70;;
73239;SDS011;61452;40.054;4.110;2023-08-06T20:39:50;23.38;;;5.10;;
73239;SDS011;61452;40.054;4.110;2023-08-06T20:44:52;21.15;;;4.53;;
73239;SDS011;61452;40.054;4.110;2023-08-06T20:49:54;21.75;;;4.43;;
73239;SDS011;61452;40.054;4.110;2023-08-06T20:54:56;16.35;;;3.10;;
73239;SDS011;61452;40.054;4.110;2023-08-06T20:59:59;25.02;;;4.57;;
73239;SDS011;61452;40.054;4.110;2023-08-06T21:05:01;19.40;;;3.67;;
73239;SDS011;61452;40.054;4.110;2023-08-06T21:10:03;19.85;;;3.55;;
73239;SDS011;61452;40.054;4.110;2023-08-06T21:15:06;33.83;;;10.77;;
73239;SDS011;61452;40.054;4.110;2023-08-06T21:20:09;42.00;;;14.27;;
73239;SDS011;61452;40.054;4.110;2023-08-06T21:25:12;64.65;;;29.77;;
73239;SDS011;61452;40.054;4.110;2023-08-06T21:30:14;38.60;;;17.67;;
73239;SDS011;61452;40.054;4.110;2023-08-06T21:35:17;29.65;;;11.00;;
73239;SDS011;61452;40.054;4.110;2023-08-06T21:40:19;25.67;;;5.03;;
73239;SDS011;61452;40.054;4.110;2023-08-06T21:45:21;18.63;;;4.53;;
73239;SDS011;61452;40.054;4.110;2023-08-06T21:50:23;18.75;;;4.53;;
73239;SDS011;61452;40.054;4.110;2023-08-06T21:55:29;20.00;;;3.95;;
73239;SDS011;61452;40.054;4.110;2023-08-06T22:00:32;19.80;;;3.75;;
73239;SDS011;61452;40.054;4.110;2023-08-06T22:05:34;23.27;;;4.13;;
73239;SDS011;61452;40.054;4.110;2023-08-06T22:10:37;18.60;;;3.65;;
73239;SDS011;61452;40.054;4.110;2023-08-06T22:15:39;23.80;;;4.22;;
73239;SDS011;61452;40.054;4.110;2023-08-06T22:20:41;23.73;;;4.85;;
73239;SDS011;61452;40.054;4.110;2023-08-06T22:25:45;15.65;;;3.03;;
73239;SDS011;61452;40.054;4.110;2023-08-06T22:30:48;26.80;;;10.75;;
73239;SDS011;61452;40.054;4.110;2023-08-06T22:35:50;22.38;;;8.10;;
73239;SDS011;61452;40.054;4.110;2023-08-06T22:40:54;23.67;;;3.33;;
73239;SDS011;61452;40.054;4.110;2023-08-06T22:45:56;22.30;;;4.07;;
73239;SDS011;61452;40.054;4.110;2023-08-06T22:50:58;15.20;;;3.83;;
73239;SDS011;61452;40.054;4.110;2023-08-06T22:56:01;15.57;;;3.88;;
73239;SDS011;61452;40.054;4.110;2023-08-06T23:01:09;15.07;;;3.65;;
73239;SDS011;61452;40.054;4.110;2023-08-06T23:06:12;14.00;;;3.28;;
73239;SDS011;61452;40.054;4.110;2023-08-06T23:11:14;14.27;;;3.65;;
73239;SDS011;61452;40.054;4.110;2023-08-06T23:16:16;15.80;;;3.53;;
73239;SDS011;61452;40.054;4.110;2023-08-06T23:21:18;15.02;;;3.55;;
73239;SDS011;61452;40.054;4.110;2023-08-06T23:26:20;19.23;;;4.40;;
73239;SDS011;61452;40.054;4.110;2023-08-06T23:31:23;16.58;;;3.95;;
73239;SDS011;61452;40.054;4.110;2023-08-06T23:36:25;19.20;;;4.10;;
73239;SDS011;61452;40.054;4.110;2023-08-06T23:41:27;19.33;;;4.05;;
73239;SDS011;61452;40.054;4.110;2023-08-06T23:46:29;15.50;;;3.42;;
73239;SDS011;61452;40.054;4.110;2023-08-06T23:51:32;16.77;;;3.63;;
73239;SDS011;61452;40.054;4.110;2023-08-06T23:56:34;19.13;;;4.10;;
